sensor_id;sensor_type;location;lat;lon;timestamp;P1;durP1;ratioP1;P2;durP2;ratioP2
59416;SDS011;45222;52.458;20.914;2024-01-16T00:00:00;3.50;;;1.40;;
59416;SDS011;45222;52.458;20.914;2024-01-16T00:03:49;4.10;;;1.50;;
59416;SDS011;45222;52.458;20.914;2024-01-16T00:07:38;3.80;;;1.70;;
59416;SDS011;45222;52.458;20.914;2024-01-16T00:11:26;6.20;;;1.60;;
59416;SDS011;45222;52.458;20.914;2024-01-16T00:15:14;6.20;;;2.40;;
59416;SDS011;45222;52.458;20.914;2024-01-16T00:19:03;5.80;;;2.30;;
59416;SDS011;45222;52.458;20.914;2024-01-16T00:22:51;11.20;;;5.30;;
59416;SDS011;45222;52.458;20.914;2024-01-16T00:26:39;7.10;;;2.20;;
59416;SDS011;45222;52.458;20.914;2024-01-16T00:30:27;2.80;;;1.10;;
59416;SDS011;45222;52.458;20.914;2024-01-16T00:34:15;1.40;;;1.10;;
59416;SDS011;45222;52.458;20.914;2024-01-16T00:38:03;3.40;;;1.70;;
59416;SDS011;45222;52.458;20.914;2024-01-16T00:41:54;5.20;;;1.60;;
59416;SDS011;45222;52.458;20.914;2024-01-16T00:45:42;5.00;;;1.90;;
59416;SDS011;45222;52.458;20.914;2024-01-16T00:53:17;2.70;;;1.30;;
59416;SDS011;45222;52.458;20.914;2024-01-16T00:57:05;4.10;;;1.20;;
59416;SDS011;45222;52.458;20.914;2024-01-16T01:00:53;3.60;;;1.20;;
59416;SDS011;45222;52.458;20.914;2024-01-16T01:04:42;5.90;;;1.50;;
59416;SDS011;45222;52.458;20.914;2024-01-16T03:13:36;1.60;;;1.00;;
59416;SDS011;45222;52.458;20.914;2024-01-16T03:17:24;3.00;;;1.20;;
59416;SDS011;45222;52.458;20.914;2024-01-16T03:21:13;3.00;;;1.30;;
59416;SDS011;45222;52.458;20.914;2024-01-16T03:25:01;3.60;;;1.30;;
59416;SDS011;45222;52.458;20.914;2024-01-16T03:28:49;3.60;;;1.20;;
59416;SDS011;45222;52.458;20.914;2024-01-16T03:32:37;5.20;;;1.90;;
59416;SDS011;45222;52.458;20.914;2024-01-16T03:36:26;4.00;;;1.20;;
59416;SDS011;45222;52.458;20.914;2024-01-16T03:40:14;2.40;;;1.00;;
59416;SDS011;45222;52.458;20.914;2024-01-16T03:44:02;2.00;;;1.00;;
59416;SDS011;45222;52.458;20.914;2024-01-16T03:47:50;5.80;;;1.70;;
59416;SDS011;45222;52.458;20.914;2024-01-16T03:51:39;1.00;;;0.80;;
59416;SDS011;45222;52.458;20.914;2024-01-16T03:55:31;3.30;;;0.90;;
59416;SDS011;45222;52.458;20.914;2024-01-16T03:59:19;1.30;;;0.80;;
59416;SDS011;45222;52.458;20.914;2024-01-16T04:03:07;1.60;;;1.00;;
59416;SDS011;45222;52.458;20.914;2024-01-16T04:06:56;3.80;;;1.50;;
59416;SDS011;45222;52.458;20.914;2024-01-16T04:10:44;2.50;;;0.90;;
59416;SDS011;45222;52.458;20.914;2024-01-16T04:14:33;2.00;;;0.90;;
59416;SDS011;45222;52.458;20.914;2024-01-16T04:18:21;4.40;;;1.00;;
59416;SDS011;45222;52.458;20.914;2024-01-16T04:22:10;3.10;;;0.90;;
59416;SDS011;45222;52.458;20.914;2024-01-16T04:25:58;2.40;;;0.80;;
59416;SDS011;45222;52.458;20.914;2024-01-16T04:29:46;6.20;;;2.30;;
59416;SDS011;45222;52.458;20.914;2024-01-16T04:33:34;3.00;;;1.40;;
59416;SDS011;45222;52.458;20.914;2024-01-16T04:37:23;6.40;;;1.70;;
59416;SDS011;45222;52.458;20.914;2024-01-16T04:41:11;6.60;;;1.60;;
59416;SDS011;45222;52.458;20.914;2024-01-16T04:44:59;2.50;;;1.20;;
59416;SDS011;45222;52.458;20.914;2024-01-16T04:48:47;8.50;;;4.70;;
59416;SDS011;45222;52.458;20.914;2024-01-16T04:52:35;3.00;;;1.30;;
59416;SDS011;45222;52.458;20.914;2024-01-16T04:56:23;2.40;;;1.00;;
59416;SDS011;45222;52.458;20.914;2024-01-16T05:00:13;8.20;;;2.00;;
59416;SDS011;45222;52.458;20.914;2024-01-16T05:04:03;3.20;;;1.60;;
59416;SDS011;45222;52.458;20.914;2024-01-16T05:07:53;2.00;;;1.00;;
59416;SDS011;45222;52.458;20.914;2024-01-16T05:11:41;3.50;;;1.20;;
59416;SDS011;45222;52.458;20.914;2024-01-16T05:15:29;3.40;;;1.60;;
59416;SDS011;45222;52.458;20.914;2024-01-16T05:19:17;2.80;;;1.10;;
59416;SDS011;45222;52.458;20.914;2024-01-16T05:23:05;2.20;;;0.80;;
59416;SDS011;45222;52.458;20.914;2024-01-16T05:26:53;3.20;;;0.90;;
59416;SDS011;45222;52.458;20.914;2024-01-16T05:30:42;3.60;;;1.20;;
59416;SDS011;45222;52.458;20.914;2024-01-16T05:34:33;3.30;;;1.40;;
59416;SDS011;45222;52.458;20.914;2024-01-16T05:38:22;6.10;;;1.60;;
59416;SDS011;45222;52.458;20.914;2024-01-16T05:42:10;3.10;;;0.90;;
59416;SDS011;45222;52.458;20.914;2024-01-16T05:45:58;2.40;;;1.00;;
59416;SDS011;45222;52.458;20.914;2024-01-16T05:49:46;3.00;;;1.10;;
59416;SDS011;45222;52.458;20.914;2024-01-16T05:53:34;2.60;;;0.90;;
59416;SDS011;45222;52.458;20.914;2024-01-16T05:57:23;4.40;;;1.10;;
59416;SDS011;45222;52.458;20.914;2024-01-16T06:01:11;2.40;;;1.20;;
59416;SDS011;45222;52.458;20.914;2024-01-16T06:05:00;3.90;;;1.20;;
59416;SDS011;45222;52.458;20.914;2024-01-16T06:08:48;2.30;;;1.20;;
59416;SDS011;45222;52.458;20.914;2024-01-16T06:12:37;1.40;;;0.90;;
59416;SDS011;45222;52.458;20.914;2024-01-16T06:16:25;2.60;;;1.10;;
59416;SDS011;45222;52.458;20.914;2024-01-16T06:20:14;9.60;;;4.40;;
59416;SDS011;45222;52.458;20.914;2024-01-16T06:24:02;3.00;;;1.00;;
59416;SDS011;45222;52.458;20.914;2024-01-16T06:27:51;2.20;;;1.10;;
59416;SDS011;45222;52.458;20.914;2024-01-16T06:31:39;2.60;;;1.00;;
59416;SDS011;45222;52.458;20.914;2024-01-16T06:35:27;2.00;;;1.00;;
59416;SDS011;45222;52.458;20.914;2024-01-16T06:39:15;2.10;;;1.00;;
59416;SDS011;45222;52.458;20.914;2024-01-16T06:43:04;4.10;;;1.10;;
59416;SDS011;45222;52.458;20.914;2024-01-16T06:46:52;5.20;;;1.90;;
59416;SDS011;45222;52.458;20.914;2024-01-16T06:50:40;5.50;;;1.90;;
59416;SDS011;45222;52.458;20.914;2024-01-16T06:54:30;2.00;;;1.00;;
59416;SDS011;45222;52.458;20.914;2024-01-16T06:58:18;4.30;;;1.20;;
59416;SDS011;45222;52.458;20.914;2024-01-16T07:02:06;2.20;;;1.00;;
59416;SDS011;45222;52.458;20.914;2024-01-16T07:05:56;1.90;;;1.00;;
59416;SDS011;45222;52.458;20.914;2024-01-16T07:09:45;5.00;;;1.30;;
59416;SDS011;45222;52.458;20.914;2024-01-16T07:13:39;2.30;;;1.10;;
59416;SDS011;45222;52.458;20.914;2024-01-16T07:17:29;3.60;;;1.00;;
59416;SDS011;45222;52.458;20.914;2024-01-16T07:21:21;3.80;;;1.30;;
59416;SDS011;45222;52.458;20.914;2024-01-16T07:25:09;4.10;;;1.50;;
59416;SDS011;45222;52.458;20.914;2024-01-16T07:28:57;7.80;;;1.70;;
59416;SDS011;45222;52.458;20.914;2024-01-16T07:32:46;4.30;;;1.60;;
59416;SDS011;45222;52.458;20.914;2024-01-16T07:36:35;8.20;;;1.70;;
59416;SDS011;45222;52.458;20.914;2024-01-16T07:40:24;7.60;;;1.60;;
59416;SDS011;45222;52.458;20.914;2024-01-16T07:44:12;11.00;;;1.60;;
59416;SDS011;45222;52.458;20.914;2024-01-16T07:48:01;8.40;;;2.80;;
59416;SDS011;45222;52.458;20.914;2024-01-16T07:51:49;4.90;;;1.80;;
59416;SDS011;45222;52.458;20.914;2024-01-16T07:55:37;5.90;;;2.30;;
59416;SDS011;45222;52.458;20.914;2024-01-16T07:59:25;7.90;;;2.20;;
59416;SDS011;45222;52.458;20.914;2024-01-16T08:03:13;8.60;;;2.80;;
59416;SDS011;45222;52.458;20.914;2024-01-16T08:07:01;6.00;;;2.10;;
59416;SDS011;45222;52.458;20.914;2024-01-16T08:10:49;9.70;;;3.20;;
59416;SDS011;45222;52.458;20.914;2024-01-16T08:14:37;4.90;;;1.70;;
59416;SDS011;45222;52.458;20.914;2024-01-16T08:18:25;7.00;;;3.10;;
59416;SDS011;45222;52.458;20.914;2024-01-16T08:22:14;6.50;;;2.40;;
59416;SDS011;45222;52.458;20.914;2024-01-16T08:26:02;8.90;;;2.50;;
59416;SDS011;45222;52.458;20.914;2024-01-16T08:29:50;6.00;;;2.20;;
59416;SDS011;45222;52.458;20.914;2024-01-16T08:33:38;5.20;;;1.70;;
59416;SDS011;45222;52.458;20.914;2024-01-16T08:37:26;5.10;;;1.70;;
59416;SDS011;45222;52.458;20.914;2024-01-16T08:41:14;3.80;;;1.30;;
59416;SDS011;45222;52.458;20.914;2024-01-16T08:45:02;4.90;;;1.30;;
59416;SDS011;45222;52.458;20.914;2024-01-16T08:48:51;7.40;;;2.10;;
59416;SDS011;45222;52.458;20.914;2024-01-16T08:52:40;4.90;;;1.90;;
59416;SDS011;45222;52.458;20.914;2024-01-16T08:56:28;5.00;;;1.90;;
59416;SDS011;45222;52.458;20.914;2024-01-16T09:00:17;6.60;;;1.60;;
59416;SDS011;45222;52.458;20.914;2024-01-16T09:07:51;3.10;;;1.80;;
59416;SDS011;45222;52.458;20.914;2024-01-16T09:11:39;3.10;;;1.00;;
59416;SDS011;45222;52.458;20.914;2024-01-16T09:15:27;2.40;;;1.20;;
59416;SDS011;45222;52.458;20.914;2024-01-16T09:19:15;7.40;;;1.80;;
59416;SDS011;45222;52.458;20.914;2024-01-16T09:23:03;2.50;;;1.20;;
59416;SDS011;45222;52.458;20.914;2024-01-16T09:26:51;4.70;;;1.60;;
59416;SDS011;45222;52.458;20.914;2024-01-16T09:30:39;8.80;;;3.70;;
59416;SDS011;45222;52.458;20.914;2024-01-16T09:34:28;3.40;;;1.10;;
59416;SDS011;45222;52.458;20.914;2024-01-16T09:38:16;6.10;;;2.20;;
59416;SDS011;45222;52.458;20.914;2024-01-16T09:42:04;6.10;;;2.20;;
59416;SDS011;45222;52.458;20.914;2024-01-16T09:45:52;5.20;;;2.00;;
59416;SDS011;45222;52.458;20.914;2024-01-16T09:49:42;5.90;;;1.80;;
59416;SDS011;45222;52.458;20.914;2024-01-16T09:53:32;6.30;;;2.20;;
59416;SDS011;45222;52.458;20.914;2024-01-16T09:57:20;4.90;;;2.00;;
59416;SDS011;45222;52.458;20.914;2024-01-16T10:01:12;5.40;;;2.10;;
59416;SDS011;45222;52.458;20.914;2024-01-16T10:05:02;6.10;;;2.50;;
59416;SDS011;45222;52.458;20.914;2024-01-16T10:08:50;4.50;;;1.10;;
59416;SDS011;45222;52.458;20.914;2024-01-16T10:12:38;7.40;;;2.60;;
59416;SDS011;45222;52.458;20.914;2024-01-16T10:16:27;5.10;;;1.20;;
59416;SDS011;45222;52.458;20.914;2024-01-16T10:20:50;6.50;;;2.70;;
59416;SDS011;45222;52.458;20.914;2024-01-16T10:24:39;5.80;;;2.60;;
59416;SDS011;45222;52.458;20.914;2024-01-16T10:28:28;6.00;;;1.50;;
59416;SDS011;45222;52.458;20.914;2024-01-16T10:32:16;6.00;;;2.60;;
59416;SDS011;45222;52.458;20.914;2024-01-16T10:36:15;2.60;;;1.20;;
59416;SDS011;45222;52.458;20.914;2024-01-16T10:40:07;5.80;;;1.30;;
59416;SDS011;45222;52.458;20.914;2024-01-16T10:44:03;3.90;;;1.10;;
59416;SDS011;45222;52.458;20.914;2024-01-16T10:47:59;6.10;;;2.60;;
59416;SDS011;45222;52.458;20.914;2024-01-16T10:51:49;4.60;;;2.10;;
59416;SDS011;45222;52.458;20.914;2024-01-16T10:55:38;3.70;;;1.30;;
59416;SDS011;45222;52.458;20.914;2024-01-16T10:59:36;3.20;;;1.20;;
59416;SDS011;45222;52.458;20.914;2024-01-16T11:03:37;5.30;;;2.00;;
59416;SDS011;45222;52.458;20.914;2024-01-16T11:07:27;2.40;;;0.90;;
59416;SDS011;45222;52.458;20.914;2024-01-16T11:11:16;6.00;;;2.40;;
59416;SDS011;45222;52.458;20.914;2024-01-16T11:15:05;4.60;;;2.10;;
59416;SDS011;45222;52.458;20.914;2024-01-16T11:18:57;1.80;;;0.90;;
59416;SDS011;45222;52.458;20.914;2024-01-16T11:22:45;2.50;;;1.30;;
59416;SDS011;45222;52.458;20.914;2024-01-16T11:26:34;3.30;;;1.10;;
59416;SDS011;45222;52.458;20.914;2024-01-16T11:30:30;2.00;;;1.10;;
59416;SDS011;45222;52.458;20.914;2024-01-16T11:34:18;6.60;;;2.50;;
59416;SDS011;45222;52.458;20.914;2024-01-16T11:38:41;8.20;;;2.60;;
59416;SDS011;45222;52.458;20.914;2024-01-16T11:42:29;5.70;;;2.10;;
59416;SDS011;45222;52.458;20.914;2024-01-16T11:46:18;4.40;;;1.20;;
59416;SDS011;45222;52.458;20.914;2024-01-16T11:50:10;3.90;;;1.30;;
59416;SDS011;45222;52.458;20.914;2024-01-16T11:54:13;5.20;;;1.90;;
59416;SDS011;45222;52.458;20.914;2024-01-16T11:58:05;2.30;;;1.10;;
59416;SDS011;45222;52.458;20.914;2024-01-16T12:02:12;4.00;;;1.20;;
59416;SDS011;45222;52.458;20.914;2024-01-16T12:06:06;4.70;;;1.40;;
59416;SDS011;45222;52.458;20.914;2024-01-16T12:09:54;6.20;;;2.40;;
59416;SDS011;45222;52.458;20.914;2024-01-16T12:13:53;6.90;;;2.90;;
59416;SDS011;45222;52.458;20.914;2024-01-16T12:17:55;4.70;;;1.80;;
59416;SDS011;45222;52.458;20.914;2024-01-16T12:21:44;7.90;;;3.10;;
59416;SDS011;45222;52.458;20.914;2024-01-16T12:25:34;2.70;;;1.30;;
59416;SDS011;45222;52.458;20.914;2024-01-16T12:29:22;7.30;;;2.90;;
59416;SDS011;45222;52.458;20.914;2024-01-16T12:33:11;2.60;;;1.20;;
59416;SDS011;45222;52.458;20.914;2024-01-16T12:37:05;6.60;;;2.40;;
59416;SDS011;45222;52.458;20.914;2024-01-16T12:40:53;9.40;;;3.10;;
59416;SDS011;45222;52.458;20.914;2024-01-16T12:44:41;8.20;;;2.00;;
59416;SDS011;45222;52.458;20.914;2024-01-16T12:48:31;9.40;;;4.10;;
59416;SDS011;45222;52.458;20.914;2024-01-16T12:52:19;8.50;;;4.10;;
59416;SDS011;45222;52.458;20.914;2024-01-16T12:56:11;8.30;;;2.10;;
59416;SDS011;45222;52.458;20.914;2024-01-16T12:59:58;5.50;;;2.10;;
59416;SDS011;45222;52.458;20.914;2024-01-16T13:03:50;9.80;;;2.70;;
59416;SDS011;45222;52.458;20.914;2024-01-16T13:07:39;10.10;;;4.70;;
59416;SDS011;45222;52.458;20.914;2024-01-16T13:11:27;11.20;;;2.70;;
59416;SDS011;45222;52.458;20.914;2024-01-16T13:15:15;9.40;;;2.70;;
59416;SDS011;45222;52.458;20.914;2024-01-16T13:19:03;12.60;;;6.90;;
59416;SDS011;45222;52.458;20.914;2024-01-16T13:22:55;14.40;;;6.40;;
59416;SDS011;45222;52.458;20.914;2024-01-16T13:26:43;12.40;;;6.50;;
59416;SDS011;45222;52.458;20.914;2024-01-16T13:30:31;14.70;;;7.30;;
59416;SDS011;45222;52.458;20.914;2024-01-16T13:34:19;9.60;;;2.70;;
59416;SDS011;45222;52.458;20.914;2024-01-16T13:38:07;6.60;;;2.50;;
59416;SDS011;45222;52.458;20.914;2024-01-16T13:41:56;12.70;;;5.80;;
59416;SDS011;45222;52.458;20.914;2024-01-16T13:45:44;11.00;;;2.70;;
59416;SDS011;45222;52.458;20.914;2024-01-16T13:49:34;11.00;;;6.00;;
59416;SDS011;45222;52.458;20.914;2024-01-16T13:53:22;11.30;;;6.10;;
59416;SDS011;45222;52.458;20.914;2024-01-16T13:57:10;8.60;;;2.80;;
59416;SDS011;45222;52.458;20.914;2024-01-16T14:00:58;11.90;;;6.60;;
59416;SDS011;45222;52.458;20.914;2024-01-16T14:04:46;7.70;;;2.10;;
59416;SDS011;45222;52.458;20.914;2024-01-16T14:08:34;8.20;;;2.80;;
59416;SDS011;45222;52.458;20.914;2024-01-16T14:12:22;10.00;;;2.50;;
59416;SDS011;45222;52.458;20.914;2024-01-16T14:16:10;14.80;;;8.20;;
59416;SDS011;45222;52.458;20.914;2024-01-16T14:19:58;8.70;;;3.20;;
59416;SDS011;45222;52.458;20.914;2024-01-16T14:23:47;13.30;;;7.60;;
59416;SDS011;45222;52.458;20.914;2024-01-16T14:27:35;8.50;;;3.00;;
59416;SDS011;45222;52.458;20.914;2024-01-16T14:31:25;9.80;;;3.00;;
59416;SDS011;45222;52.458;20.914;2024-01-16T14:35:13;9.00;;;3.00;;
59416;SDS011;45222;52.458;20.914;2024-01-16T14:39:02;11.80;;;3.40;;
59416;SDS011;45222;52.458;20.914;2024-01-16T14:42:50;9.40;;;2.50;;
59416;SDS011;45222;52.458;20.914;2024-01-16T14:46:41;9.90;;;2.80;;
59416;SDS011;45222;52.458;20.914;2024-01-16T14:50:30;8.70;;;2.60;;
59416;SDS011;45222;52.458;20.914;2024-01-16T14:54:18;10.80;;;3.00;;
59416;SDS011;45222;52.458;20.914;2024-01-16T14:58:06;9.40;;;3.00;;
59416;SDS011;45222;52.458;20.914;2024-01-16T15:01:54;10.10;;;3.50;;
59416;SDS011;45222;52.458;20.914;2024-01-16T15:05:44;9.20;;;2.80;;
59416;SDS011;45222;52.458;20.914;2024-01-16T15:09:34;7.20;;;2.30;;
59416;SDS011;45222;52.458;20.914;2024-01-16T15:13:22;7.50;;;2.30;;
59416;SDS011;45222;52.458;20.914;2024-01-16T15:17:10;8.20;;;2.70;;
59416;SDS011;45222;52.458;20.914;2024-01-16T15:20:58;8.00;;;2.10;;
59416;SDS011;45222;52.458;20.914;2024-01-16T15:24:46;14.20;;;8.30;;
59416;SDS011;45222;52.458;20.914;2024-01-16T15:28:34;15.20;;;5.60;;
59416;SDS011;45222;52.458;20.914;2024-01-16T15:32:22;18.00;;;6.80;;
59416;SDS011;45222;52.458;20.914;2024-01-16T15:36:10;22.30;;;9.10;;
59416;SDS011;45222;52.458;20.914;2024-01-16T15:39:58;15.90;;;7.50;;
59416;SDS011;45222;52.458;20.914;2024-01-16T15:43:46;21.90;;;8.50;;
59416;SDS011;45222;52.458;20.914;2024-01-16T15:47:36;20.90;;;8.10;;
59416;SDS011;45222;52.458;20.914;2024-01-16T15:51:25;25.70;;;8.70;;
59416;SDS011;45222;52.458;20.914;2024-01-16T15:55:13;29.50;;;12.90;;
59416;SDS011;45222;52.458;20.914;2024-01-16T15:59:01;30.60;;;10.80;;
59416;SDS011;45222;52.458;20.914;2024-01-16T16:02:51;30.50;;;12.20;;
59416;SDS011;45222;52.458;20.914;2024-01-16T16:06:40;24.90;;;9.30;;
59416;SDS011;45222;52.458;20.914;2024-01-16T16:10:28;25.80;;;10.10;;
59416;SDS011;45222;52.458;20.914;2024-01-16T16:14:19;27.60;;;10.20;;
59416;SDS011;45222;52.458;20.914;2024-01-16T16:18:07;23.40;;;9.70;;
59416;SDS011;45222;52.458;20.914;2024-01-16T16:21:55;24.90;;;9.20;;
59416;SDS011;45222;52.458;20.914;2024-01-16T16:25:47;21.00;;;7.50;;
59416;SDS011;45222;52.458;20.914;2024-01-16T16:29:34;26.30;;;8.10;;
59416;SDS011;45222;52.458;20.914;2024-01-16T16:33:22;32.10;;;19.80;;
59416;SDS011;45222;52.458;20.914;2024-01-16T16:37:11;26.20;;;9.90;;
59416;SDS011;45222;52.458;20.914;2024-01-16T16:40:59;20.10;;;8.40;;
59416;SDS011;45222;52.458;20.914;2024-01-16T16:44:47;21.40;;;8.50;;
59416;SDS011;45222;52.458;20.914;2024-01-16T16:48:35;20.90;;;9.30;;
59416;SDS011;45222;52.458;20.914;2024-01-16T16:52:25;21.80;;;9.10;;
59416;SDS011;45222;52.458;20.914;2024-01-16T16:56:13;22.90;;;10.30;;
59416;SDS011;45222;52.458;20.914;2024-01-16T17:03:49;22.00;;;9.40;;
59416;SDS011;45222;52.458;20.914;2024-01-16T17:07:37;25.30;;;9.20;;
59416;SDS011;45222;52.458;20.914;2024-01-16T17:11:26;22.00;;;8.60;;
59416;SDS011;45222;52.458;20.914;2024-01-16T17:15:14;22.20;;;8.60;;
59416;SDS011;45222;52.458;20.914;2024-01-16T17:19:02;24.70;;;9.60;;
59416;SDS011;45222;52.458;20.914;2024-01-16T17:22:50;29.60;;;18.90;;
59416;SDS011;45222;52.458;20.914;2024-01-16T17:26:39;24.70;;;8.60;;
59416;SDS011;45222;52.458;20.914;2024-01-16T17:30:29;22.40;;;9.00;;
59416;SDS011;45222;52.458;20.914;2024-01-16T17:38:05;21.50;;;9.40;;
59416;SDS011;45222;52.458;20.914;2024-01-16T17:41:54;22.30;;;9.10;;
59416;SDS011;45222;52.458;20.914;2024-01-16T17:45:43;21.60;;;8.70;;
59416;SDS011;45222;52.458;20.914;2024-01-16T17:49:32;22.60;;;8.90;;
59416;SDS011;45222;52.458;20.914;2024-01-16T17:53:20;19.70;;;8.90;;
59416;SDS011;45222;52.458;20.914;2024-01-16T17:57:08;21.20;;;9.20;;
59416;SDS011;45222;52.458;20.914;2024-01-16T18:00:57;28.20;;;18.60;;
59416;SDS011;45222;52.458;20.914;2024-01-16T18:04:47;22.10;;;8.70;;
59416;SDS011;45222;52.458;20.914;2024-01-16T18:08:36;27.00;;;18.20;;
59416;SDS011;45222;52.458;20.914;2024-01-16T18:12:24;26.00;;;16.70;;
59416;SDS011;45222;52.458;20.914;2024-01-16T18:16:14;19.00;;;8.10;;
59416;SDS011;45222;52.458;20.914;2024-01-16T18:20:07;28.90;;;18.70;;
59416;SDS011;45222;52.458;20.914;2024-01-16T18:24:02;28.00;;;10.90;;
59416;SDS011;45222;52.458;20.914;2024-01-16T18:27:51;34.20;;;15.10;;
59416;SDS011;45222;52.458;20.914;2024-01-16T18:31:42;35.00;;;13.90;;
59416;SDS011;45222;52.458;20.914;2024-01-16T18:35:34;49.80;;;15.40;;
59416;SDS011;45222;52.458;20.914;2024-01-16T18:39:24;47.40;;;17.30;;
59416;SDS011;45222;52.458;20.914;2024-01-16T18:43:12;59.10;;;21.10;;
59416;SDS011;45222;52.458;20.914;2024-01-16T18:47:03;43.80;;;20.40;;
59416;SDS011;45222;52.458;20.914;2024-01-16T18:50:54;35.80;;;15.70;;
59416;SDS011;45222;52.458;20.914;2024-01-16T18:54:42;40.50;;;15.80;;
59416;SDS011;45222;52.458;20.914;2024-01-16T18:58:31;39.00;;;16.00;;
59416;SDS011;45222;52.458;20.914;2024-01-16T19:02:19;43.80;;;17.00;;
59416;SDS011;45222;52.458;20.914;2024-01-16T19:06:09;38.70;;;16.80;;
59416;SDS011;45222;52.458;20.914;2024-01-16T19:09:58;43.70;;;17.90;;
59416;SDS011;45222;52.458;20.914;2024-01-16T19:13:47;46.50;;;19.30;;
59416;SDS011;45222;52.458;20.914;2024-01-16T19:17:35;42.20;;;17.70;;
59416;SDS011;45222;52.458;20.914;2024-01-16T19:21:23;52.50;;;21.30;;
59416;SDS011;45222;52.458;20.914;2024-01-16T19:25:11;45.80;;;20.40;;
59416;SDS011;45222;52.458;20.914;2024-01-16T19:29:02;39.60;;;17.00;;
59416;SDS011;45222;52.458;20.914;2024-01-16T19:32:53;38.80;;;15.40;;
59416;SDS011;45222;52.458;20.914;2024-01-16T19:36:41;36.70;;;14.20;;
59416;SDS011;45222;52.458;20.914;2024-01-16T19:40:33;63.60;;;23.00;;
59416;SDS011;45222;52.458;20.914;2024-01-16T19:44:21;66.30;;;24.30;;
59416;SDS011;45222;52.458;20.914;2024-01-16T19:48:09;44.30;;;17.70;;
59416;SDS011;45222;52.458;20.914;2024-01-16T19:51:57;40.40;;;14.60;;
59416;SDS011;45222;52.458;20.914;2024-01-16T19:55:45;44.40;;;15.50;;
59416;SDS011;45222;52.458;20.914;2024-01-16T19:59:34;36.80;;;13.80;;
59416;SDS011;45222;52.458;20.914;2024-01-16T20:03:25;28.40;;;12.60;;
59416;SDS011;45222;52.458;20.914;2024-01-16T20:07:15;31.20;;;13.20;;
59416;SDS011;45222;52.458;20.914;2024-01-16T20:11:03;31.10;;;12.50;;
59416;SDS011;45222;52.458;20.914;2024-01-16T20:14:52;29.70;;;13.00;;
59416;SDS011;45222;52.458;20.914;2024-01-16T20:18:43;35.00;;;15.20;;
59416;SDS011;45222;52.458;20.914;2024-01-16T20:22:33;33.80;;;14.10;;
59416;SDS011;45222;52.458;20.914;2024-01-16T20:26:21;39.50;;;15.50;;
59416;SDS011;45222;52.458;20.914;2024-01-16T20:33:58;41.70;;;13.70;;
59416;SDS011;45222;52.458;20.914;2024-01-16T20:37:46;29.60;;;12.30;;
59416;SDS011;45222;52.458;20.914;2024-01-16T20:41:35;46.10;;;31.10;;
59416;SDS011;45222;52.458;20.914;2024-01-16T20:45:23;36.10;;;13.00;;
59416;SDS011;45222;52.458;20.914;2024-01-16T20:49:12;46.20;;;31.80;;
59416;SDS011;45222;52.458;20.914;2024-01-16T20:53:02;52.50;;;34.00;;
59416;SDS011;45222;52.458;20.914;2024-01-16T20:56:51;32.10;;;13.50;;
59416;SDS011;45222;52.458;20.914;2024-01-16T21:00:39;36.40;;;12.70;;
59416;SDS011;45222;52.458;20.914;2024-01-16T21:04:30;41.80;;;12.80;;
59416;SDS011;45222;52.458;20.914;2024-01-16T21:08:18;55.40;;;32.60;;
59416;SDS011;45222;52.458;20.914;2024-01-16T21:12:07;66.10;;;36.10;;
59416;SDS011;45222;52.458;20.914;2024-01-16T21:15:57;31.20;;;12.10;;
59416;SDS011;45222;52.458;20.914;2024-01-16T21:19:46;35.40;;;13.40;;
59416;SDS011;45222;52.458;20.914;2024-01-16T21:23:35;31.60;;;12.30;;
59416;SDS011;45222;52.458;20.914;2024-01-16T21:27:23;29.40;;;12.40;;
59416;SDS011;45222;52.458;20.914;2024-01-16T21:31:11;29.70;;;11.80;;
59416;SDS011;45222;52.458;20.914;2024-01-16T21:35:00;36.40;;;12.60;;
59416;SDS011;45222;52.458;20.914;2024-01-16T21:38:52;29.20;;;10.60;;
59416;SDS011;45222;52.458;20.914;2024-01-16T21:46:27;25.80;;;10.70;;
59416;SDS011;45222;52.458;20.914;2024-01-16T21:50:19;28.10;;;11.30;;
59416;SDS011;45222;52.458;20.914;2024-01-16T21:57:54;28.50;;;10.80;;
59416;SDS011;45222;52.458;20.914;2024-01-16T22:01:45;27.90;;;11.50;;
59416;SDS011;45222;52.458;20.914;2024-01-16T22:05:34;30.00;;;11.70;;
59416;SDS011;45222;52.458;20.914;2024-01-16T22:09:25;32.30;;;11.60;;
59416;SDS011;45222;52.458;20.914;2024-01-16T22:13:14;26.60;;;10.00;;
59416;SDS011;45222;52.458;20.914;2024-01-16T22:17:03;26.40;;;10.10;;
59416;SDS011;45222;52.458;20.914;2024-01-16T22:20:51;32.50;;;13.20;;
59416;SDS011;45222;52.458;20.914;2024-01-16T22:24:39;28.80;;;11.50;;
59416;SDS011;45222;52.458;20.914;2024-01-16T22:28:27;31.30;;;12.40;;
59416;SDS011;45222;52.458;20.914;2024-01-16T22:32:15;28.30;;;11.80;;
59416;SDS011;45222;52.458;20.914;2024-01-16T22:36:06;29.70;;;11.50;;
59416;SDS011;45222;52.458;20.914;2024-01-16T22:39:54;32.70;;;11.60;;
59416;SDS011;45222;52.458;20.914;2024-01-16T22:43:44;42.20;;;14.00;;
59416;SDS011;45222;52.458;20.914;2024-01-16T22:47:33;24.60;;;9.90;;
59416;SDS011;45222;52.458;20.914;2024-01-16T22:55:09;37.10;;;14.50;;
59416;SDS011;45222;52.458;20.914;2024-01-16T22:58:57;40.90;;;14.70;;
59416;SDS011;45222;52.458;20.914;2024-01-16T23:02:45;46.60;;;17.90;;
59416;SDS011;45222;52.458;20.914;2024-01-16T23:06:33;43.00;;;16.80;;
59416;SDS011;45222;52.458;20.914;2024-01-16T23:10:22;91.60;;;50.30;;
59416;SDS011;45222;52.458;20.914;2024-01-16T23:14:10;65.90;;;23.80;;
59416;SDS011;45222;52.458;20.914;2024-01-16T23:17:58;68.10;;;24.50;;
59416;SDS011;45222;52.458;20.914;2024-01-16T23:21:47;58.00;;;22.00;;
59416;SDS011;45222;52.458;20.914;2024-01-16T23:25:36;59.10;;;22.40;;
59416;SDS011;45222;52.458;20.914;2024-01-16T23:29:24;58.00;;;20.70;;
59416;SDS011;45222;52.458;20.914;2024-01-16T23:33:14;51.00;;;19.70;;
59416;SDS011;45222;52.458;20.914;2024-01-16T23:37:03;55.50;;;20.70;;
59416;SDS011;45222;52.458;20.914;2024-01-16T23:40:51;47.80;;;19.50;;
59416;SDS011;45222;52.458;20.914;2024-01-16T23:44:39;51.90;;;18.40;;
59416;SDS011;45222;52.458;20.914;2024-01-16T23:48:36;60.40;;;22.40;;
59416;SDS011;45222;52.458;20.914;2024-01-16T23:52:26;60.00;;;22.40;;
59416;SDS011;45222;52.458;20.914;2024-01-16T23:56:14;62.60;;;23.60;;
